Time;durP1;ratioP1;P1;durP2;ratioP2;P2;SDS_P1;SDS_P2;PMS_P1;PMS_P2;Temp;Humidity;BMP_temperature;BMP_pressure;BME280_temperature;BME280_humidity;BME280_pressure;Samples;Min_cycle;Max_cycle;Signal;HPM_P1;HPM_P2
2022/10/21 00:00:57;;;;;;;6.23;4.20;;;15.40;99.90;;;15.89;nan;100278.81;4992389;28;20696;-65
2022/10/21 00:03:26;;;;;;;10.00;5.50;;;15.50;99.90;;;16.00;nan;100273.31;4975607;28;21338;-64
2022/10/21 00:05:53;;;;;;;11.43;5.57;;;15.50;99.90;;;15.86;nan;100273.88;4975392;28;20630;-64
2022/10/21 00:08:21;;;;;;;7.80;4.57;;;15.50;99.90;;;15.84;nan;100274.03;4994254;28;20648;-64
2022/10/21 00:10:58;;;;;;;8.30;4.67;;;15.40;99.90;;;15.91;nan;100274.22;4992916;28;20634;-66
2022/10/21 00:13:27;;;;;;;13.90;5.30;;;15.40;99.90;;;15.79;nan;100278.91;4994168;28;20661;-64
2022/10/21 00:16:04;;;;;;;7.03;4.80;;;15.40;99.90;;;15.70;nan;100276.34;4993154;28;20633;-64
2022/10/21 00:18:33;;;;;;;9.10;4.80;;;15.30;99.90;;;15.74;nan;100283.81;4993373;28;21200;-64
2022/10/21 00:21:09;;;;;;;8.83;6.30;;;15.30;99.90;;;15.76;nan;100288.94;4993113;28;20603;-63
2022/10/21 00:23:37;;;;;;;11.60;6.67;;;15.30;99.90;;;15.77;nan;100295.81;4994313;28;20673;-64
2022/10/21 00:26:04;;;;;;;8.77;5.57;;;15.30;99.90;;;15.80;nan;100306.88;4992818;28;20643;-64
2022/10/21 00:28:31;;;;;;;9.00;5.27;;;15.30;99.90;;;15.82;nan;100315.44;4983509;28;20669;-64
2022/10/21 00:30:58;;;;;;;7.67;5.37;;;15.30;99.90;;;15.82;nan;100331.22;4992980;28;21258;-67
2022/10/21 00:33:27;;;;;;;8.10;5.93;;;15.30;99.90;;;15.90;nan;100335.75;4991952;28;21027;-64
2022/10/21 00:35:57;;;;;;;7.33;4.80;;;15.30;99.90;;;15.95;nan;100326.41;4974253;28;20634;-64
2022/10/21 00:38:24;;;;;;;7.20;4.50;;;15.40;99.90;;;15.68;nan;100299.34;4992475;28;20708;-63
2022/10/21 00:40:51;;;;;;;6.87;4.53;;;15.30;99.90;;;15.76;nan;100299.44;4992076;28;20729;-63
2022/10/21 00:43:18;;;;;;;6.93;4.27;;;15.30;99.90;;;15.84;nan;100305.59;4993927;28;20677;-67
2022/10/21 00:45:49;;;;;;;6.90;4.00;;;15.30;99.90;;;15.60;nan;100292.22;4992705;28;20635;-64
2022/10/21 00:48:37;;;;;;;6.93;4.90;;;15.30;99.90;;;15.87;nan;100267.63;4966721;28;20643;-64
2022/10/21 00:51:16;;;;;;;8.40;4.90;;;15.30;99.90;;;15.82;nan;100233.88;4989849;28;20647;-64
2022/10/21 00:53:47;;;;;;;9.67;5.23;;;15.30;99.90;;;15.79;nan;100225.47;4991450;28;21049;-64
2022/10/21 00:56:19;;;;;;;8.63;5.13;;;15.30;99.90;;;15.75;nan;100226.75;4993282;28;20626;-63
2022/10/21 00:58:47;;;;;;;9.23;5.70;;;15.30;99.90;;;15.78;nan;100237.00;4974203;28;20666;-63
2022/10/21 01:01:14;;;;;;;7.87;5.07;;;15.30;99.90;;;15.64;nan;100221.75;4992844;28;20603;-63
2022/10/21 01:03:45;;;;;;;6.90;4.47;;;15.20;99.90;;;15.78;nan;100203.59;4975912;28;21179;-64
2022/10/21 01:06:14;;;;;;;9.10;5.60;;;15.20;99.90;;;15.73;nan;100219.03;4974616;28;21006;-66
2022/10/21 01:08:41;;;;;;;12.00;5.87;;;15.30;99.90;;;15.68;nan;100223.09;4972858;28;21026;-65
2022/10/21 01:11:15;;;;;;;11.10;6.63;;;15.20;99.90;;;15.78;nan;100237.00;4974770;28;20634;-63
2022/10/21 01:14:08;;;;;;;12.00;6.90;;;15.30;99.90;;;15.65;nan;100241.81;4991530;28;20668;-64
2022/10/21 01:16:56;;;;;;;11.40;5.67;;;15.20;99.90;;;15.61;nan;100227.31;4992171;28;20638;-64
2022/10/21 01:20:00;;;;;;;11.10;6.20;;;15.20;99.90;;;15.61;nan;100224.69;4991255;28;20671;-67
2022/10/21 01:23:27;;;;;;;8.07;5.60;;;15.20;99.90;;;15.74;nan;100225.13;4990489;28;20673;-65
2022/10/21 01:26:09;;;;;;;7.53;5.53;;;15.20;99.90;;;15.52;nan;100203.56;4975706;28;20995;-64
2022/10/21 01:29:02;;;;;;;12.70;7.63;;;15.20;99.90;;;15.59;nan;100202.97;4991811;28;20639;-64
2022/10/21 01:32:00;;;;;;;14.53;8.00;;;15.20;99.90;;;15.49;nan;100219.66;4974224;28;20638;-63
2022/10/21 01:35:02;;;;;;;10.40;6.20;;;15.10;99.90;;;15.30;nan;100229.47;4992986;28;20692;-63
2022/10/21 01:37:55;;;;;;;10.53;5.63;;;15.00;99.90;;;15.34;nan;100213.25;4974553;28;20631;-64
2022/10/21 01:40:34;;;;;;;7.93;4.80;;;15.00;99.90;;;15.39;nan;100192.59;4974465;28;20633;-67
2022/10/21 01:43:16;;;;;;;8.97;5.30;;;15.00;99.90;;;15.34;nan;100189.59;4975297;28;20615;-64
2022/10/21 01:45:56;;;;;;;11.73;6.10;;;15.00;99.90;;;15.37;nan;100212.13;4974727;28;21041;-63
2022/10/21 01:48:28;;;;;;;11.13;7.00;;;14.90;99.90;;;15.48;nan;100199.59;4973635;28;20670;-64
2022/10/21 01:51:05;;;;;;;9.70;5.97;;;15.00;99.90;;;15.55;nan;100205.06;4986357;28;20980;-64
2022/10/21 01:53:51;;;;;;;8.10;5.60;;;15.10;99.90;;;15.21;nan;100201.44;4973893;28;20723;-68
2022/10/21 01:56:19;;;;;;;9.13;6.10;;;15.00;99.90;;;15.34;nan;100191.38;4974358;28;20630;-64
2022/10/21 01:58:48;;;;;;;8.20;4.73;;;15.00;99.90;;;15.25;nan;100198.38;4991254;28;20650;-65
2022/10/21 02:01:16;;;;;;;11.30;5.60;;;15.00;99.90;;;15.21;nan;100199.66;4974173;28;20750;-64
2022/10/21 02:03:50;;;;;;;6.07;3.37;;;14.90;99.90;;;15.16;nan;100194.00;4975106;28;20638;-64
2022/10/21 02:06:17;;;;;;;9.77;6.50;;;14.80;99.90;;;15.03;nan;100193.56;4974586;28;20627;-64
2022/10/21 02:08:44;;;;;;;9.80;6.20;;;14.80;99.90;;;15.15;nan;100176.59;4971598;28;20662;-68
2022/10/21 02:11:11;;;;;;;8.90;5.80;;;14.70;99.90;;;15.10;nan;100188.56;4991070;28;20634;-65
2022/10/21 02:13:51;;;;;;;10.47;5.97;;;14.70;99.90;;;15.12;nan;100174.28;4969772;28;20678;-66
2022/10/21 02:16:25;;;;;;;9.73;5.93;;;14.70;99.90;;;15.07;nan;100160.78;4990467;28;20676;-64
2022/10/21 02:18:55;;;;;;;9.37;5.87;;;14.80;99.90;;;15.10;nan;100154.41;4980157;28;20662;-64
2022/10/21 02:21:24;;;;;;;9.30;5.50;;;14.70;99.90;;;15.06;nan;100145.97;4972840;28;20623;-64
2022/10/21 02:23:58;;;;;;;8.00;5.27;;;14.70;99.90;;;15.06;nan;100148.59;4973649;28;20708;-64
2022/10/21 02:26:26;;;;;;;12.00;6.17;;;14.70;99.90;;;14.95;nan;100151.44;4973759;28;20638;-70
2022/10/21 02:28:56;;;;;;;11.63;6.30;;;14.60;99.90;;;15.02;nan;100149.03;4990210;28;20724;-64
2022/10/21 02:31:41;;;;;;;10.27;5.97;;;14.60;99.90;;;15.02;nan;100162.19;4974955;28;20621;-65
2022/10/21 02:34:18;;;;;;;8.63;5.57;;;14.60;99.90;;;15.05;nan;100156.63;4972837;28;20653;-64
2022/10/21 02:36:53;;;;;;;10.87;7.03;;;14.70;99.90;;;14.86;nan;100157.63;4977364;28;20631;-65
2022/10/21 02:39:34;;;;;;;13.43;7.43;;;14.60;99.90;;;14.96;nan;100157.53;4989924;28;21085;-64
2022/10/21 02:42:05;;;;;;;11.77;5.70;;;14.60;99.90;;;14.94;nan;100148.97;4973258;28;20756;-66
2022/10/21 02:44:33;;;;;;;9.43;5.77;;;14.60;99.90;;;14.94;nan;100154.22;4972981;28;21244;-64
2022/10/21 02:47:00;;;;;;;7.60;4.70;;;14.60;99.90;;;15.06;nan;100150.38;4991681;28;20611;-64
2022/10/21 02:49:27;;;;;;;10.33;6.07;;;14.60;99.90;;;15.12;nan;100145.38;4960714;28;21014;-65
2022/10/21 02:51:54;;;;;;;10.23;5.90;;;14.70;99.90;;;15.12;nan;100126.97;4994112;28;20657;-64
2022/10/21 02:54:21;;;;;;;8.63;5.77;;;14.70;99.90;;;15.12;nan;100113.03;4977553;28;20751;-64
2022/10/21 02:56:48;;;;;;;9.07;5.73;;;14.70;99.90;;;15.17;nan;100108.13;4992916;28;20648;-65
2022/10/21 02:59:15;;;;;;;10.50;6.10;;;14.70;99.90;;;15.09;nan;100106.28;4992903;28;20658;-64
2022/10/21 03:01:42;;;;;;;9.00;5.53;;;14.70;99.90;;;15.09;nan;100098.38;4993416;28;20650;-65
2022/10/21 03:04:08;;;;;;;9.33;5.47;;;14.70;99.90;;;14.98;nan;100096.00;4994101;28;20610;-64
2022/10/21 03:06:35;;;;;;;10.90;6.13;;;14.70;99.90;;;14.94;nan;100097.28;4995003;28;20642;-66
2022/10/21 03:09:04;;;;;;;7.57;5.57;;;14.60;99.90;;;14.95;nan;100112.03;4993759;28;20719;-64
2022/10/21 03:11:31;;;;;;;9.53;5.30;;;14.60;99.90;;;14.97;nan;100114.53;4994301;28;21236;-64
2022/10/21 03:13:57;;;;;;;11.83;5.80;;;14.60;99.90;;;14.92;nan;100114.97;4995136;28;21242;-66
2022/10/21 03:16:25;;;;;;;10.80;6.43;;;14.60;99.90;;;14.91;nan;100109.84;4994073;28;20631;-64
2022/10/21 03:18:52;;;;;;;13.27;5.70;;;14.60;99.90;;;14.92;nan;100109.72;4990890;28;20659;-67
2022/10/21 03:21:18;;;;;;;11.07;6.87;;;14.60;99.90;;;14.97;nan;100101.41;4986238;28;20639;-64
2022/10/21 03:23:45;;;;;;;11.13;6.30;;;14.60;99.90;;;14.93;nan;100113.19;4978392;28;20620;-64
2022/10/21 03:26:12;;;;;;;15.53;6.03;;;14.60;99.90;;;14.93;nan;100107.94;4994719;28;20623;-65
2022/10/21 03:28:39;;;;;;;11.37;6.57;;;14.60;99.90;;;15.00;nan;100104.53;4992513;28;20688;-64
2022/10/21 03:31:06;;;;;;;8.43;4.40;;;14.60;99.90;;;14.94;nan;100110.41;4993080;28;21209;-66
2022/10/21 03:33:33;;;;;;;8.57;4.90;;;14.60;99.90;;;14.97;nan;100110.09;4993802;28;20670;-64
2022/10/21 03:36:00;;;;;;;13.07;7.13;;;14.60;99.90;;;15.02;nan;100107.00;4993103;28;20627;-67
2022/10/21 03:38:27;;;;;;;11.80;7.00;;;14.60;99.90;;;15.01;nan;100106.22;4994872;28;20654;-64
2022/10/21 03:40:54;;;;;;;12.67;6.30;;;14.60;99.90;;;14.89;nan;100106.56;4993177;28;20630;-65
2022/10/21 03:43:20;;;;;;;16.13;7.53;;;14.60;99.90;;;15.02;nan;100096.50;4994454;28;20615;-65
2022/10/21 03:45:47;;;;;;;13.70;7.20;;;14.60;99.90;;;14.96;nan;100097.94;4993482;28;21020;-65
2022/10/21 03:50:55;;;;;;;13.33;6.90;;;14.60;99.90;;;15.06;nan;100103.09;5011436;28;20660;-67
2022/10/21 03:53:23;;;;;;;10.60;5.87;;;14.60;99.90;;;14.98;nan;100100.41;4996905;28;20606;-66
2022/10/21 03:56:08;;;;;;;12.77;6.57;;;14.60;99.90;;;14.77;nan;100096.31;4988600;28;21178;-64
2022/10/21 03:58:35;;;;;;;10.37;5.70;;;14.50;99.90;;;15.07;nan;100089.84;4960915;28;20605;-64
2022/10/21 04:01:02;;;;;;;11.37;6.27;;;14.60;99.90;;;15.06;nan;100084.72;4992664;28;21071;-64
2022/10/21 04:03:29;;;;;;;12.33;6.00;;;14.60;99.90;;;14.95;nan;100083.13;4993745;28;20645;-65
2022/10/21 04:05:56;;;;;;;13.70;6.40;;;14.60;99.90;;;14.98;nan;100074.97;4976214;28;20615;-64
2022/10/21 04:08:23;;;;;;;8.57;5.20;;;14.60;99.90;;;14.83;nan;100076.47;4974990;28;20684;-64
2022/10/21 04:10:50;;;;;;;11.50;6.13;;;14.60;99.90;;;14.92;nan;100074.75;4987781;28;20634;-64
2022/10/21 04:13:17;;;;;;;12.70;6.47;;;14.60;99.90;;;14.94;nan;100078.06;4989671;28;20641;-65
2022/10/21 04:15:44;;;;;;;9.77;6.13;;;14.60;99.90;;;15.05;nan;100080.44;4976246;28;20613;-64
2022/10/21 04:18:11;;;;;;;8.70;4.90;;;14.60;99.90;;;14.87;nan;100077.00;4993969;28;20630;-64
2022/10/21 04:20:38;;;;;;;13.27;6.30;;;14.60;99.90;;;14.76;nan;100073.63;5004487;28;20663;-64
2022/10/21 04:23:05;;;;;;;11.60;6.33;;;14.50;99.90;;;14.76;nan;100067.53;4994132;28;20623;-64
2022/10/21 04:25:32;;;;;;;8.70;5.73;;;14.50;99.90;;;14.84;nan;100072.91;4959527;28;20627;-64
2022/10/21 04:27:59;;;;;;;13.00;7.70;;;14.50;99.90;;;14.78;nan;100079.56;4993844;28;21197;-62
2022/10/21 04:30:25;;;;;;;9.93;6.33;;;14.40;99.90;;;14.75;nan;100063.28;4975251;28;20662;-64
2022/10/21 04:32:52;;;;;;;10.30;6.23;;;14.50;99.90;;;14.91;nan;100063.41;4993691;28;20634;-64
2022/10/21 04:35:19;;;;;;;11.63;6.67;;;14.50;99.90;;;14.92;nan;100059.81;4973387;28;21049;-64
2022/10/21 04:37:46;;;;;;;7.77;5.47;;;14.50;99.90;;;14.99;nan;100060.84;4977012;28;20639;-64
2022/10/21 04:40:13;;;;;;;10.50;5.67;;;14.50;99.90;;;14.96;nan;100061.16;4974436;28;21207;-64
2022/10/21 04:42:40;;;;;;;8.57;5.60;;;14.60;99.90;;;14.92;nan;100053.75;4991924;28;21214;-64
2022/10/21 04:45:08;;;;;;;10.17;6.33;;;14.50;99.90;;;14.89;nan;100041.72;4960666;28;20603;-64
2022/10/21 04:47:34;;;;;;;11.70;6.57;;;14.50;99.90;;;14.91;nan;100042.41;4975358;28;20603;-64
2022/10/21 04:50:02;;;;;;;11.07;6.80;;;14.50;99.90;;;14.85;nan;100042.19;5005589;28;20666;-65
2022/10/21 04:52:29;;;;;;;10.40;5.80;;;14.50;99.90;;;14.94;nan;100044.72;4996779;28;20664;-65
2022/10/21 04:54:56;;;;;;;8.97;5.20;;;14.60;99.90;;;15.12;nan;100040.25;4992674;28;20668;-66
2022/10/21 04:57:23;;;;;;;12.70;5.10;;;14.60;99.90;;;15.03;nan;100032.50;4991303;28;20636;-64
2022/10/21 04:59:50;;;;;;;8.47;5.47;;;14.60;99.90;;;14.93;nan;100027.31;4992751;28;20645;-65
2022/10/21 05:02:16;;;;;;;12.00;6.00;;;14.60;99.90;;;15.05;nan;100031.38;4990221;28;20635;-65
2022/10/21 05:04:45;;;;;;;9.63;6.03;;;14.60;99.90;;;15.00;nan;100025.72;4992098;28;21171;-64
2022/10/21 05:07:12;;;;;;;9.30;5.83;;;14.60;99.90;;;15.09;nan;100024.00;4991088;28;20635;-64
2022/10/21 05:09:39;;;;;;;10.30;6.13;;;14.60;99.90;;;15.08;nan;100033.66;4991426;28;21056;-64
2022/10/21 05:12:05;;;;;;;11.80;6.40;;;14.60;99.90;;;15.11;nan;100032.53;4991952;28;20634;-64
2022/10/21 05:14:33;;;;;;;11.90;7.33;;;14.60;99.90;;;15.15;nan;100020.75;4975596;28;20650;-64
2022/10/21 05:16:59;;;;;;;6.40;4.10;;;14.70;99.90;;;15.13;nan;100034.03;4974754;28;20618;-64
2022/10/21 05:19:26;;;;;;;9.23;5.70;;;14.70;99.90;;;15.05;nan;100043.66;4975500;28;21279;-65
2022/10/21 05:21:57;;;;;;;11.47;5.43;;;14.70;99.90;;;15.04;nan;100044.63;4994904;28;20646;-64
2022/10/21 05:24:24;;;;;;;11.00;5.30;;;14.60;99.90;;;14.96;nan;100041.94;4992713;28;20639;-65
2022/10/21 05:26:51;;;;;;;7.50;4.93;;;14.60;99.90;;;14.95;nan;100030.59;4975508;28;20618;-64
2022/10/21 05:29:18;;;;;;;7.73;4.50;;;14.60;99.90;;;14.83;nan;100036.25;4980282;28;20666;-65
2022/10/21 05:31:45;;;;;;;7.93;4.40;;;14.60;99.90;;;14.85;nan;100027.25;4992523;28;20635;-65
2022/10/21 05:34:12;;;;;;;12.90;5.97;;;14.60;99.90;;;14.79;nan;100033.13;4990957;28;20658;-65
2022/10/21 05:36:39;;;;;;;9.50;5.60;;;14.50;99.90;;;14.93;nan;100022.06;4989748;28;20693;-64
2022/10/21 05:39:10;;;;;;;16.30;7.20;;;14.50;99.90;;;15.13;nan;100025.31;4990991;28;20658;-64
2022/10/21 05:41:37;;;;;;;7.00;5.03;;;14.60;99.90;;;14.91;nan;100037.16;4990175;28;21017;-64
2022/10/21 05:44:06;;;;;;;13.00;5.67;;;14.60;99.90;;;14.95;nan;100038.47;4991724;28;21005;-64
2022/10/21 05:46:33;;;;;;;11.43;5.80;;;14.60;99.90;;;14.86;nan;100030.72;4992293;28;20619;-64
2022/10/21 05:49:00;;;;;;;10.67;5.73;;;14.60;99.90;;;15.01;nan;100037.06;4992257;28;20658;-63
2022/10/21 05:51:27;;;;;;;9.97;5.87;;;14.60;99.90;;;14.94;nan;100025.50;5001304;28;20655;-65
2022/10/21 05:53:55;;;;;;;9.70;5.50;;;14.60;99.90;;;15.02;nan;100025.56;4987305;28;20690;-64
2022/10/21 05:56:22;;;;;;;9.40;5.30;;;14.60;99.90;;;15.05;nan;100014.75;4986809;28;20628;-64
2022/10/21 05:58:50;;;;;;;11.90;5.80;;;14.60;99.90;;;15.16;nan;100015.31;4989206;28;20967;-66
2022/10/21 06:01:17;;;;;;;8.77;5.70;;;14.60;99.90;;;15.22;nan;100013.91;4971720;28;20998;-64
2022/10/21 06:03:44;;;;;;;8.37;5.40;;;14.70;99.90;;;15.25;nan;100006.53;4971158;28;20627;-65
2022/10/21 06:06:11;;;;;;;10.37;6.30;;;14.80;99.90;;;15.29;nan;100004.44;4988066;28;20677;-65
2022/10/21 06:08:38;;;;;;;9.07;6.30;;;14.80;99.90;;;15.30;nan;100012.16;4983697;28;20668;-65
2022/10/21 06:11:12;;;;;;;12.87;5.63;;;14.80;99.90;;;15.17;nan;100006.47;4985611;28;21005;-65
2022/10/21 06:13:40;;;;;;;11.00;4.97;;;14.70;99.90;;;15.13;nan;100009.56;4973989;28;20608;-65
2022/10/21 06:16:08;;;;;;;10.70;6.10;;;14.70;99.90;;;15.17;nan;100006.47;4992330;28;20658;-65
2022/10/21 06:18:35;;;;;;;9.17;5.90;;;14.70;99.90;;;15.21;nan;99997.31;4991336;28;20634;-67
2022/10/21 06:21:03;;;;;;;9.50;5.90;;;14.70;99.90;;;15.24;nan;99999.63;4957170;28;20642;-65
2022/10/21 06:23:30;;;;;;;7.70;5.37;;;14.70;99.90;;;15.30;nan;100009.53;4965462;28;20634;-65
2022/10/21 06:26:04;;;;;;;8.90;5.60;;;14.80;99.90;;;15.35;nan;100009.06;4991882;28;20639;-65
2022/10/21 06:28:35;;;;;;;11.00;5.37;;;14.80;99.90;;;15.41;nan;100009.25;4973818;28;21314;-65
2022/10/21 06:31:03;;;;;;;8.20;5.63;;;14.90;99.90;;;15.46;nan;100021.97;4975139;28;20610;-66
2022/10/21 06:33:30;;;;;;;8.97;5.00;;;14.90;99.90;;;15.44;nan;100024.72;4972967;28;20653;-66
2022/10/21 06:35:57;;;;;;;9.07;5.60;;;14.90;99.90;;;15.40;nan;100025.16;4955631;28;20681;-64
2022/10/21 06:38:25;;;;;;;7.97;4.80;;;15.00;99.90;;;15.60;nan;100031.06;4990164;28;20623;-65
2022/10/21 06:40:59;;;;;;;7.70;5.30;;;15.00;99.90;;;15.64;nan;100035.03;4988881;28;20985;-66
2022/10/21 06:43:26;;;;;;;7.97;5.20;;;15.00;99.90;;;15.44;nan;100037.88;4983598;28;20628;-64
2022/10/21 06:45:58;;;;;;;7.40;4.77;;;15.00;99.90;;;15.50;nan;100039.09;4991106;28;20642;-65
2022/10/21 06:48:25;;;;;;;13.27;5.77;;;15.00;99.90;;;15.63;nan;100049.97;4991331;28;20623;-64
2022/10/21 06:51:13;;;;;;;13.50;5.97;;;15.10;99.90;;;15.72;nan;100069.25;4996374;28;20660;-65
2022/10/21 06:53:41;;;;;;;9.00;5.93;;;15.10;99.90;;;15.80;nan;100077.22;4975840;28;21247;-64
2022/10/21 06:56:15;;;;;;;10.87;5.77;;;15.20;99.90;;;15.79;nan;100086.06;4991758;28;20782;-63
2022/10/21 06:58:48;;;;;;;7.83;5.60;;;15.20;99.90;;;15.77;nan;100086.22;4970369;28;20666;-64
2022/10/21 07:01:19;;;;;;;8.47;5.47;;;15.20;99.90;;;15.80;nan;100085.91;4955057;28;20638;-65
2022/10/21 07:04:00;;;;;;;8.20;5.47;;;15.20;99.90;;;15.80;nan;100093.78;4990245;28;20637;-65
2022/10/21 07:06:26;;;;;;;7.90;5.40;;;15.30;99.90;;;15.85;nan;100098.59;4990816;28;21007;-66
2022/10/21 07:08:54;;;;;;;10.17;5.60;;;15.30;99.90;;;15.86;nan;100095.00;4988778;28;20667;-65
2022/10/21 07:11:26;;;;;;;9.07;4.97;;;15.30;99.90;;;15.67;nan;100097.84;4986873;28;20646;-65
2022/10/21 07:13:54;;;;;;;9.80;5.20;;;15.30;99.90;;;15.68;nan;100091.59;4972969;28;21092;-65
2022/10/21 07:16:26;;;;;;;10.13;5.67;;;15.20;99.90;;;15.71;nan;100099.19;4971994;28;20667;-65
2022/10/21 07:18:54;;;;;;;8.00;4.97;;;15.20;99.90;;;15.76;nan;100097.72;4970463;28;20662;-66
2022/10/21 07:21:24;;;;;;;9.93;5.47;;;15.20;99.90;;;15.84;nan;100102.22;4984857;28;20685;-65
2022/10/21 07:23:53;;;;;;;8.70;4.70;;;15.20;99.90;;;15.85;nan;100099.41;4972165;28;20644;-65
2022/10/21 07:26:24;;;;;;;8.30;5.07;;;15.30;99.90;;;15.93;nan;100093.38;4973748;28;21166;-64
2022/10/21 07:28:51;;;;;;;6.60;4.87;;;15.30;99.90;;;15.98;nan;100080.56;4990748;28;20657;-65
2022/10/21 07:31:20;;;;;;;11.33;5.00;;;15.40;99.90;;;15.98;nan;100091.09;4990135;28;20642;-65
2022/10/21 07:33:48;;;;;;;7.07;4.80;;;15.40;99.90;;;16.07;nan;100082.25;4992140;28;20633;-66
2022/10/21 07:36:25;;;;;;;7.50;5.27;;;15.50;99.90;;;16.04;nan;100083.38;4993283;28;21049;-64
2022/10/21 07:38:54;;;;;;;10.17;5.37;;;15.50;99.90;;;16.10;nan;100079.28;4975350;28;21047;-65
2022/10/21 07:41:28;;;;;;;8.07;4.87;;;15.50;99.90;;;16.13;nan;100085.09;4975438;28;21227;-65
2022/10/21 07:43:58;;;;;;;8.93;4.90;;;15.50;99.90;;;16.17;nan;100077.69;4976085;28;20602;-67
2022/10/21 07:46:25;;;;;;;8.73;4.80;;;15.60;99.90;;;16.15;nan;100077.84;4992801;28;20696;-65
2022/10/21 07:48:52;;;;;;;6.27;4.23;;;15.60;99.90;;;16.09;nan;100069.75;4975141;28;20662;-66
2022/10/21 07:51:22;;;;;;;10.50;5.53;;;15.60;99.90;;;16.14;nan;100070.91;4994150;28;20696;-66
2022/10/21 07:53:56;;;;;;;13.80;6.10;;;15.60;99.90;;;16.18;nan;100074.09;4977126;28;21216;-65
2022/10/21 07:56:30;;;;;;;9.20;5.23;;;15.60;99.90;;;16.04;nan;100079.94;4976915;28;20650;-64
2022/10/21 07:58:58;;;;;;;7.70;5.30;;;15.60;99.90;;;15.93;nan;100090.75;4976069;28;21296;-64
2022/10/21 08:01:25;;;;;;;12.33;5.00;;;15.50;99.90;;;15.90;nan;100091.06;4992581;28;20683;-64
2022/10/21 08:03:54;;;;;;;10.47;5.43;;;15.50;99.90;;;16.02;nan;100090.63;4987533;28;21172;-65
2022/10/21 08:06:23;;;;;;;10.60;5.40;;;15.50;99.90;;;16.02;nan;100082.72;4956019;28;20627;-65
2022/10/21 08:08:51;;;;;;;10.87;6.00;;;15.50;99.90;;;16.13;nan;100087.72;4957938;28;20646;-65
2022/10/21 08:11:27;;;;;;;9.37;5.30;;;15.60;99.90;;;16.02;nan;100085.34;4986062;28;20649;-66
2022/10/21 08:13:54;;;;;;;8.13;5.33;;;15.60;99.90;;;16.11;nan;100086.22;4993388;28;20629;-65
2022/10/21 08:16:21;;;;;;;10.80;4.43;;;15.60;99.90;;;16.09;nan;100090.81;4992471;28;21040;-65
2022/10/21 08:18:49;;;;;;;5.70;3.77;;;15.60;99.90;;;16.21;nan;100082.47;4976408;28;20638;-64
2022/10/21 08:21:16;;;;;;;9.90;5.20;;;15.70;99.90;;;16.04;nan;100077.28;5004166;28;21196;-65
2022/10/21 08:23:43;;;;;;;7.50;4.83;;;15.70;99.90;;;16.20;nan;100072.13;4993739;28;20692;-64
2022/10/21 08:26:13;;;;;;;6.00;4.87;;;15.70;99.90;;;16.35;nan;100052.09;4976132;28;20984;-65
2022/10/21 08:28:41;;;;;;;6.77;5.03;;;15.80;99.90;;;16.37;nan;100021.16;4958583;28;21038;-66
2022/10/21 08:31:15;;;;;;;10.53;6.03;;;15.80;99.90;;;16.45;nan;100060.66;4995127;28;20627;-65
2022/10/21 08:33:43;;;;;;;16.67;8.63;;;15.90;99.90;;;15.98;nan;100077.94;4968545;28;20622;-65
2022/10/21 08:36:28;;;;;;;13.27;5.47;;;15.70;99.90;;;15.93;nan;100090.75;4967876;28;21247;-65
2022/10/21 08:38:57;;;;;;;6.13;4.70;;;15.60;99.90;;;15.91;nan;100087.44;4983260;28;21253;-67
2022/10/21 08:41:30;;;;;;;3.00;2.50;;;15.60;99.90;;;16.06;nan;100084.06;4980997;28;20623;-68
2022/10/21 08:44:09;;;;;;;18.80;6.10;;;15.60;99.90;;;16.16;nan;100074.22;4980753;28;20644;-68
2022/10/21 08:46:54;;;;;;;4.10;3.50;;;15.70;99.90;;;16.16;nan;100089.22;4974831;28;20619;-66
2022/10/21 08:49:47;;;;;;;8.63;4.00;;;15.70;99.90;;;16.44;nan;100102.97;4972660;28;21035;-66
2022/10/21 08:52:20;;;;;;;9.33;4.10;;;15.80;99.90;;;16.30;nan;100097.31;4964643;28;20649;-67
2022/10/21 08:55:02;;;;;;;9.53;5.27;;;15.90;99.90;;;16.23;nan;100104.19;4976458;28;20669;-68
2022/10/21 08:57:33;;;;;;;12.00;5.50;;;15.80;99.90;;;16.09;nan;100096.06;4967049;28;20639;-64
2022/10/21 09:00:05;;;;;;;13.63;6.90;;;15.80;99.90;;;16.25;nan;100099.59;4971894;28;20650;-62
2022/10/21 09:02:38;;;;;;;11.50;6.57;;;15.70;99.90;;;16.24;nan;100103.22;4973420;28;21197;-64
2022/10/21 09:05:45;;;;;;;10.27;5.33;;;15.80;99.90;;;16.11;nan;100109.91;4991314;28;21017;-65
2022/10/21 09:08:25;;;;;;;7.27;4.70;;;15.80;99.90;;;16.15;nan;100100.72;4992378;28;20618;-65
2022/10/21 09:11:00;;;;;;;8.47;4.47;;;15.70;99.90;;;16.17;nan;100104.84;4990173;28;20649;-64
2022/10/21 09:13:49;;;;;;;6.40;4.00;;;15.80;99.90;;;16.04;nan;100100.97;4975024;28;20638;-64
2022/10/21 09:16:40;;;;;;;10.50;5.10;;;15.70;99.90;;;16.14;nan;100096.44;4974104;28;20696;-64
2022/10/21 09:19:53;;;;;;;9.60;4.47;;;15.80;99.90;;;16.06;nan;100096.38;4974571;28;20639;-63
2022/10/21 09:22:51;;;;;;;8.23;2.57;;;15.70;99.90;;;16.08;nan;100097.03;4973289;28;20658;-64
2022/10/21 09:26:01;;;;;;;7.83;4.80;;;15.70;99.90;;;16.17;nan;100096.09;4970030;28;20627;-64
2022/10/21 09:28:30;;;;;;;5.07;3.50;;;15.80;99.90;;;16.10;nan;100100.34;4966913;28;20648;-64
2022/10/21 09:31:01;;;;;;;11.00;5.67;;;15.80;99.90;;;16.05;nan;100102.66;4973862;28;21217;-64
2022/10/21 09:33:33;;;;;;;4.57;3.53;;;15.80;99.90;;;;;;4991867;28;20627;-64
2022/10/21 09:36:14;;;;;;;7.80;4.70;;;15.80;99.90;;;;;;4991807;28;21225;-64
2022/10/21 09:39:15;;;;;;;7.53;3.30;;;15.80;99.90;;;15.89;nan;100107.81;4991757;28;20705;-64
2022/10/21 09:41:47;;;;;;;6.57;4.87;;;15.90;99.90;;;16.23;nan;100113.88;4975276;28;20752;-64
2022/10/21 09:44:19;;;;;;;5.80;3.87;;;15.90;99.90;;;16.23;nan;100108.63;4974377;28;21213;-65
2022/10/21 09:46:48;;;;;;;3.07;2.17;;;15.90;99.90;;;16.22;nan;100114.88;4975505;28;20669;-65
2022/10/21 09:49:31;;;;;;;4.20;2.53;;;15.90;99.90;;;16.11;nan;100121.25;4992674;23;20819;-64
2022/10/21 09:52:28;;;;;;;6.00;4.00;;;15.80;99.90;;;16.28;nan;100136.16;4991024;28;21244;-64
2022/10/21 09:54:55;;;;;;;11.50;6.00;;;15.90;99.90;;;16.31;nan;100145.53;5009390;28;20990;-64
2022/10/21 09:57:50;;;;;;;9.10;6.03;;;15.90;99.90;;;16.19;nan;100173.94;5010878;28;20648;-64
2022/10/21 10:00:17;;;;;;;11.40;4.80;;;15.80;99.90;;;16.31;nan;100161.34;5005943;28;20666;-62
2022/10/21 10:02:45;;;;;;;4.40;4.00;;;15.90;99.90;;;16.37;nan;100165.13;5007224;28;21251;-64
2022/10/21 10:05:46;;;;;;;12.53;3.00;;;15.90;99.90;;;16.37;nan;100165.97;4991144;28;20999;-64
2022/10/21 10:08:43;;;;;;;2.60;2.40;;;15.90;99.90;;;16.33;nan;100159.38;4988958;28;20638;-64
2022/10/21 10:11:12;;;;;;;2.07;1.63;;;15.90;99.90;;;16.40;nan;100160.34;5006007;28;20668;-64
2022/10/21 10:14:17;;;;;;;4.50;3.20;;;16.00;99.90;;;16.39;nan;100163.16;5010398;28;20704;-64
2022/10/21 10:16:44;;;;;;;3.90;3.10;;;16.00;99.90;;;16.33;nan;100154.91;5001925;28;20665;-62
2022/10/21 10:19:20;;;;;;;2.13;1.80;;;16.00;99.90;;;16.43;nan;100165.31;5011637;28;20650;-66
2022/10/21 10:22:13;;;;;;;2.97;2.50;;;16.00;99.90;;;16.46;nan;100174.72;4994888;28;20693;-63
2022/10/21 10:24:43;;;;;;;2.20;2.00;;;16.00;99.90;;;16.64;nan;100171.03;5010870;28;21205;-63
2022/10/21 10:27:19;;;;;;;2.33;2.13;;;16.00;99.90;;;16.68;nan;100174.97;5011090;28;20629;-65
2022/10/21 10:29:54;;;;;;;3.53;1.60;;;16.10;99.90;;;16.70;nan;100177.44;5009413;28;20672;-65
2022/10/21 10:32:24;;;;;;;2.50;1.73;;;16.10;99.90;;;16.86;nan;100178.34;5009170;28;20637;-65
2022/10/21 10:34:56;;;;;;;1.73;1.43;;;16.20;99.90;;;16.98;nan;100173.56;5010279;28;20648;-65
2022/10/21 10:37:26;;;;;;;2.00;1.43;;;16.30;99.90;;;17.03;nan;100185.28;4968039;28;20634;-64
2022/10/21 10:39:57;;;;;;;1.63;1.53;;;16.40;99.90;;;16.97;nan;100177.22;4972781;28;20643;-64
2022/10/21 10:42:33;;;;;;;2.30;1.70;;;16.50;99.90;;;17.05;nan;100187.75;4978009;28;20636;-64
2022/10/21 10:45:05;;;;;;;1.60;1.50;;;16.50;99.90;;;17.19;nan;100188.91;5011736;28;20664;-63
2022/10/21 10:47:47;;;;;;;1.63;1.53;;;16.60;99.90;;;17.32;nan;100182.19;5009451;28;21082;-63
2022/10/21 10:50:48;;;;;;;1.83;1.50;;;16.70;99.90;;;17.39;nan;100180.53;5008381;28;20672;-64